Terminal Aerodrome Forecast
Issued by NWS

Home | Current Version | Previous Version | Graphics & Text | Print | Product List | Glossary On
Versions: 1 2 3 4 5 6 7 8 9 10 11 12 13 14
972
FTUS43 KLSX 161725
TAFSUS
TAF
KSUS 161725Z 1618/1718 29009KT P6SM BKN045
     FM170500 29004KT P6SM SCT050=

USA.gov is the U.S. government's official web portal to all federal, state and local government web resources and services.